sensor_id;sensor_type;location;lat;lon;timestamp;temperature;humidity
51982;DHT22;37998;53.416;6.730;2023-03-02T00:04:10;3.10;99.90
51982;DHT22;37998;53.416;6.730;2023-03-02T00:06:37;3.10;99.90
51982;DHT22;37998;53.416;6.730;2023-03-02T00:09:04;3.10;99.90
51982;DHT22;37998;53.416;6.730;2023-03-02T00:11:33;3.00;99.90
51982;DHT22;37998;53.416;6.730;2023-03-02T00:13:59;3.00;99.90
51982;DHT22;37998;53.416;6.730;2023-03-02T00:16:25;3.10;99.90
51982;DHT22;37998;53.416;6.730;2023-03-02T00:18:51;3.00;99.90
51982;DHT22;37998;53.416;6.730;2023-03-02T00:21:16;3.00;99.90
51982;DHT22;37998;53.416;6.730;2023-03-02T00:23:42;3.00;99.90
51982;DHT22;37998;53.416;6.730;2023-03-02T00:26:08;3.00;99.90
51982;DHT22;37998;53.416;6.730;2023-03-02T00:28:34;2.90;99.90
51982;DHT22;37998;53.416;6.730;2023-03-02T00:31:02;3.00;99.90
51982;DHT22;37998;53.416;6.730;2023-03-02T00:33:28;3.00;99.90
51982;DHT22;37998;53.416;6.730;2023-03-02T00:35:53;3.00;99.90
51982;DHT22;37998;53.416;6.730;2023-03-02T00:38:19;3.00;99.90
51982;DHT22;37998;53.416;6.730;2023-03-02T00:40:46;3.00;99.90
51982;DHT22;37998;53.416;6.730;2023-03-02T00:43:14;3.00;99.90
51982;DHT22;37998;53.416;6.730;2023-03-02T00:45:39;3.00;99.90
51982;DHT22;37998;53.416;6.730;2023-03-02T00:48:06;3.00;99.90
51982;DHT22;37998;53.416;6.730;2023-03-02T00:50:31;3.10;99.90
51982;DHT22;37998;53.416;6.730;2023-03-02T00:52:57;3.00;99.90
51982;DHT22;37998;53.416;6.730;2023-03-02T00:55:23;3.00;99.90
51982;DHT22;37998;53.416;6.730;2023-03-02T00:57:53;3.00;99.90
51982;DHT22;37998;53.416;6.730;2023-03-02T01:00:22;3.40;99.90
51982;DHT22;37998;53.416;6.730;2023-03-02T01:02:49;2.90;99.90
51982;DHT22;37998;53.416;6.730;2023-03-02T01:05:15;3.00;99.90
51982;DHT22;37998;53.416;6.730;2023-03-02T01:07:41;3.00;99.90
51982;DHT22;37998;53.416;6.730;2023-03-02T01:10:07;2.90;99.90
51982;DHT22;37998;53.416;6.730;2023-03-02T01:12:33;2.90;99.90
51982;DHT22;37998;53.416;6.730;2023-03-02T01:14:59;2.90;99.90
51982;DHT22;37998;53.416;6.730;2023-03-02T01:17:24;2.90;99.90
51982;DHT22;37998;53.416;6.730;2023-03-02T01:19:51;2.90;99.90
51982;DHT22;37998;53.416;6.730;2023-03-02T01:22:18;2.90;99.90
51982;DHT22;37998;53.416;6.730;2023-03-02T01:24:44;2.90;99.90
51982;DHT22;37998;53.416;6.730;2023-03-02T01:27:09;2.90;99.90
51982;DHT22;37998;53.416;6.730;2023-03-02T01:29:35;2.90;99.90
51982;DHT22;37998;53.416;6.730;2023-03-02T01:32:01;2.90;99.90
51982;DHT22;37998;53.416;6.730;2023-03-02T01:34:27;2.90;99.90
51982;DHT22;37998;53.416;6.730;2023-03-02T01:36:53;2.90;99.90
51982;DHT22;37998;53.416;6.730;2023-03-02T01:39:18;2.90;99.90
51982;DHT22;37998;53.416;6.730;2023-03-02T01:41:48;2.90;99.90
51982;DHT22;37998;53.416;6.730;2023-03-02T01:46:59;2.80;99.90
51982;DHT22;37998;53.416;6.730;2023-03-02T01:49:26;2.80;99.90
51982;DHT22;37998;53.416;6.730;2023-03-02T01:51:52;2.80;99.90
51982;DHT22;37998;53.416;6.730;2023-03-02T01:54:20;2.80;99.90
51982;DHT22;37998;53.416;6.730;2023-03-02T01:56:50;2.80;99.90
51982;DHT22;37998;53.416;6.730;2023-03-02T01:59:20;2.90;99.90
51982;DHT22;37998;53.416;6.730;2023-03-02T02:01:52;2.90;99.90
51982;DHT22;37998;53.416;6.730;2023-03-02T02:04:20;2.90;99.90
51982;DHT22;37998;53.416;6.730;2023-03-02T02:06:52;2.90;99.90
51982;DHT22;37998;53.416;6.730;2023-03-02T02:09:20;2.90;99.90
51982;DHT22;37998;53.416;6.730;2023-03-02T02:11:47;2.90;99.90
51982;DHT22;37998;53.416;6.730;2023-03-02T02:14:13;3.00;99.90
51982;DHT22;37998;53.416;6.730;2023-03-02T02:16:39;3.00;99.90
51982;DHT22;37998;53.416;6.730;2023-03-02T02:21:37;2.90;99.90
51982;DHT22;37998;53.416;6.730;2023-03-02T02:24:23;2.90;99.90
51982;DHT22;37998;53.416;6.730;2023-03-02T02:26:54;2.90;99.90
51982;DHT22;37998;53.416;6.730;2023-03-02T02:29:25;2.90;99.90
51982;DHT22;37998;53.416;6.730;2023-03-02T02:32:12;2.90;99.90
51982;DHT22;37998;53.416;6.730;2023-03-02T02:37:21;2.80;99.90
51982;DHT22;37998;53.416;6.730;2023-03-02T02:39:48;2.80;99.90
51982;DHT22;37998;53.416;6.730;2023-03-02T02:42:26;2.80;99.90
51982;DHT22;37998;53.416;6.730;2023-03-02T02:44:56;2.70;99.90
51982;DHT22;37998;53.416;6.730;2023-03-02T02:47:22;2.80;99.90
51982;DHT22;37998;53.416;6.730;2023-03-02T02:49:53;2.70;99.90
51982;DHT22;37998;53.416;6.730;2023-03-02T02:52:23;2.80;99.90
51982;DHT22;37998;53.416;6.730;2023-03-02T02:54:52;2.80;99.90
51982;DHT22;37998;53.416;6.730;2023-03-02T02:57:19;2.80;99.90
51982;DHT22;37998;53.416;6.730;2023-03-02T02:59:52;2.70;99.90
51982;DHT22;37998;53.416;6.730;2023-03-02T03:02:22;2.70;99.90
51982;DHT22;37998;53.416;6.730;2023-03-02T03:04:48;2.70;99.90
51982;DHT22;37998;53.416;6.730;2023-03-02T03:07:23;2.70;99.90
51982;DHT22;37998;53.416;6.730;2023-03-02T03:12:25;2.70;99.90
51982;DHT22;37998;53.416;6.730;2023-03-02T03:14:52;2.70;99.90
51982;DHT22;37998;53.416;6.730;2023-03-02T03:17:18;2.60;99.90
51982;DHT22;37998;53.416;6.730;2023-03-02T03:19:45;2.60;99.90
51982;DHT22;37998;53.416;6.730;2023-03-02T03:22:12;2.60;99.90
51982;DHT22;37998;53.416;6.730;2023-03-02T03:24:40;2.60;99.90
51982;DHT22;37998;53.416;6.730;2023-03-02T03:27:08;2.60;99.90
51982;DHT22;37998;53.416;6.730;2023-03-02T03:29:39;2.60;99.90
51982;DHT22;37998;53.416;6.730;2023-03-02T03:32:05;2.80;99.90
51982;DHT22;37998;53.416;6.730;2023-03-02T03:34:32;2.60;99.90
51982;DHT22;37998;53.416;6.730;2023-03-02T03:36:58;2.60;99.90
51982;DHT22;37998;53.416;6.730;2023-03-02T03:39:28;2.60;99.90
51982;DHT22;37998;53.416;6.730;2023-03-02T03:41:54;2.60;99.90
51982;DHT22;37998;53.416;6.730;2023-03-02T03:44:20;2.60;99.90
51982;DHT22;37998;53.416;6.730;2023-03-02T03:46:45;2.60;99.90
51982;DHT22;37998;53.416;6.730;2023-03-02T03:49:11;2.60;99.90
51982;DHT22;37998;53.416;6.730;2023-03-02T03:51:37;2.70;99.90
51982;DHT22;37998;53.416;6.730;2023-03-02T03:54:04;2.70;99.90
51982;DHT22;37998;53.416;6.730;2023-03-02T03:56:33;2.70;99.90
51982;DHT22;37998;53.416;6.730;2023-03-02T03:58:59;2.70;99.90
51982;DHT22;37998;53.416;6.730;2023-03-02T04:01:36;2.80;99.90
51982;DHT22;37998;53.416;6.730;2023-03-02T04:04:04;2.70;99.90
51982;DHT22;37998;53.416;6.730;2023-03-02T04:06:30;2.60;99.90
51982;DHT22;37998;53.416;6.730;2023-03-02T04:08:55;2.60;99.90
51982;DHT22;37998;53.416;6.730;2023-03-02T04:11:21;2.50;99.90
51982;DHT22;37998;53.416;6.730;2023-03-02T04:13:47;2.50;99.90
51982;DHT22;37998;53.416;6.730;2023-03-02T04:16:14;2.40;99.90
51982;DHT22;37998;53.416;6.730;2023-03-02T04:18:40;2.40;99.90
51982;DHT22;37998;53.416;6.730;2023-03-02T04:21:07;2.40;99.90
51982;DHT22;37998;53.416;6.730;2023-03-02T04:23:33;2.40;99.90
51982;DHT22;37998;53.416;6.730;2023-03-02T04:25:59;2.50;99.90
51982;DHT22;37998;53.416;6.730;2023-03-02T04:28:30;2.40;99.90
51982;DHT22;37998;53.416;6.730;2023-03-02T04:30:56;2.40;99.90
51982;DHT22;37998;53.416;6.730;2023-03-02T04:33:21;2.40;99.90
51982;DHT22;37998;53.416;6.730;2023-03-02T04:35:47;2.30;99.90
51982;DHT22;37998;53.416;6.730;2023-03-02T04:38:13;2.30;99.90
51982;DHT22;37998;53.416;6.730;2023-03-02T04:40:38;2.30;99.90
51982;DHT22;37998;53.416;6.730;2023-03-02T04:43:04;2.30;99.90
51982;DHT22;37998;53.416;6.730;2023-03-02T04:45:30;2.30;99.90
51982;DHT22;37998;53.416;6.730;2023-03-02T04:47:55;2.30;99.90
51982;DHT22;37998;53.416;6.730;2023-03-02T04:50:21;2.20;99.90
51982;DHT22;37998;53.416;6.730;2023-03-02T04:52:47;2.20;99.90
51982;DHT22;37998;53.416;6.730;2023-03-02T04:55:21;2.30;99.90
51982;DHT22;37998;53.416;6.730;2023-03-02T04:57:47;2.20;99.90
51982;DHT22;37998;53.416;6.730;2023-03-02T05:00:13;2.20;99.90
51982;DHT22;37998;53.416;6.730;2023-03-02T05:02:40;2.20;99.90
51982;DHT22;37998;53.416;6.730;2023-03-02T05:05:06;2.20;99.90
51982;DHT22;37998;53.416;6.730;2023-03-02T05:07:32;2.20;99.90
51982;DHT22;37998;53.416;6.730;2023-03-02T05:09:58;2.20;99.90
51982;DHT22;37998;53.416;6.730;2023-03-02T05:12:23;2.20;99.90
51982;DHT22;37998;53.416;6.730;2023-03-02T05:14:49;2.20;99.90
51982;DHT22;37998;53.416;6.730;2023-03-02T05:17:15;2.30;99.90
51982;DHT22;37998;53.416;6.730;2023-03-02T05:19:41;2.30;99.90
51982;DHT22;37998;53.416;6.730;2023-03-02T05:22:06;2.30;99.90
51982;DHT22;37998;53.416;6.730;2023-03-02T05:24:32;2.40;99.90
51982;DHT22;37998;53.416;6.730;2023-03-02T05:26:58;2.40;99.90
51982;DHT22;37998;53.416;6.730;2023-03-02T05:29:23;2.30;99.90
51982;DHT22;37998;53.416;6.730;2023-03-02T05:31:49;2.30;99.90
51982;DHT22;37998;53.416;6.730;2023-03-02T05:34:15;2.30;99.90
51982;DHT22;37998;53.416;6.730;2023-03-02T05:36:42;2.30;99.90
51982;DHT22;37998;53.416;6.730;2023-03-02T05:39:08;2.30;99.90
51982;DHT22;37998;53.416;6.730;2023-03-02T05:41:34;2.30;99.90
51982;DHT22;37998;53.416;6.730;2023-03-02T05:44:01;2.30;99.90
51982;DHT22;37998;53.416;6.730;2023-03-02T05:46:27;2.30;99.90
51982;DHT22;37998;53.416;6.730;2023-03-02T05:48:53;2.20;99.90
51982;DHT22;37998;53.416;6.730;2023-03-02T05:51:18;2.20;99.90
51982;DHT22;37998;53.416;6.730;2023-03-02T05:53:44;2.20;99.90
51982;DHT22;37998;53.416;6.730;2023-03-02T05:56:10;2.10;99.90
51982;DHT22;37998;53.416;6.730;2023-03-02T05:58:36;2.10;99.90
51982;DHT22;37998;53.416;6.730;2023-03-02T06:01:01;2.10;99.90
51982;DHT22;37998;53.416;6.730;2023-03-02T06:03:31;2.20;99.90
51982;DHT22;37998;53.416;6.730;2023-03-02T06:05:57;2.20;99.90
51982;DHT22;37998;53.416;6.730;2023-03-02T06:08:23;2.20;99.90
51982;DHT22;37998;53.416;6.730;2023-03-02T06:10:48;2.20;99.90
51982;DHT22;37998;53.416;6.730;2023-03-02T06:13:15;2.20;99.90
51982;DHT22;37998;53.416;6.730;2023-03-02T06:15:41;2.20;99.90
51982;DHT22;37998;53.416;6.730;2023-03-02T06:18:07;2.20;99.90
51982;DHT22;37998;53.416;6.730;2023-03-02T06:20:33;2.20;99.90
51982;DHT22;37998;53.416;6.730;2023-03-02T06:22:58;2.20;99.90
51982;DHT22;37998;53.416;6.730;2023-03-02T06:25:24;2.20;99.90
51982;DHT22;37998;53.416;6.730;2023-03-02T06:27:50;2.20;99.90
51982;DHT22;37998;53.416;6.730;2023-03-02T06:30:23;2.10;99.90
51982;DHT22;37998;53.416;6.730;2023-03-02T06:32:48;2.20;99.90
51982;DHT22;37998;53.416;6.730;2023-03-02T06:35:15;2.20;99.90
51982;DHT22;37998;53.416;6.730;2023-03-02T06:37:40;2.20;99.90
51982;DHT22;37998;53.416;6.730;2023-03-02T06:40:07;2.20;99.90
51982;DHT22;37998;53.416;6.730;2023-03-02T06:42:35;2.20;99.90
51982;DHT22;37998;53.416;6.730;2023-03-02T06:45:01;2.20;99.90
51982;DHT22;37998;53.416;6.730;2023-03-02T06:47:26;2.20;99.90
51982;DHT22;37998;53.416;6.730;2023-03-02T06:49:52;2.10;99.90
51982;DHT22;37998;53.416;6.730;2023-03-02T06:52:17;2.10;99.90
51982;DHT22;37998;53.416;6.730;2023-03-02T06:54:43;2.10;99.90
51982;DHT22;37998;53.416;6.730;2023-03-02T06:57:09;2.10;99.90
51982;DHT22;37998;53.416;6.730;2023-03-02T06:59:35;2.00;99.90
51982;DHT22;37998;53.416;6.730;2023-03-02T07:02:01;2.00;99.90
51982;DHT22;37998;53.416;6.730;2023-03-02T07:04:26;2.00;99.90
51982;DHT22;37998;53.416;6.730;2023-03-02T07:06:53;2.00;99.90
51982;DHT22;37998;53.416;6.730;2023-03-02T07:09:19;2.10;99.90
51982;DHT22;37998;53.416;6.730;2023-03-02T07:11:45;2.10;99.90
51982;DHT22;37998;53.416;6.730;2023-03-02T07:14:10;2.10;99.90
51982;DHT22;37998;53.416;6.730;2023-03-02T07:16:36;2.10;99.90
51982;DHT22;37998;53.416;6.730;2023-03-02T07:19:03;2.10;99.90
51982;DHT22;37998;53.416;6.730;2023-03-02T07:21:29;2.00;99.90
51982;DHT22;37998;53.416;6.730;2023-03-02T07:23:54;2.00;99.90
51982;DHT22;37998;53.416;6.730;2023-03-02T07:26:20;2.00;99.90
51982;DHT22;37998;53.416;6.730;2023-03-02T07:28:46;2.10;99.90
51982;DHT22;37998;53.416;6.730;2023-03-02T07:31:11;2.10;99.90
51982;DHT22;37998;53.416;6.730;2023-03-02T07:33:38;2.00;99.90
51982;DHT22;37998;53.416;6.730;2023-03-02T07:36:07;2.00;99.90
51982;DHT22;37998;53.416;6.730;2023-03-02T07:38:34;2.00;99.90
51982;DHT22;37998;53.416;6.730;2023-03-02T07:41:05;2.00;99.90
51982;DHT22;37998;53.416;6.730;2023-03-02T07:43:31;2.00;99.90
51982;DHT22;37998;53.416;6.730;2023-03-02T07:45:59;2.00;99.90
51982;DHT22;37998;53.416;6.730;2023-03-02T07:48:25;2.00;99.90
51982;DHT22;37998;53.416;6.730;2023-03-02T07:50:51;2.00;99.90
51982;DHT22;37998;53.416;6.730;2023-03-02T07:53:21;2.10;99.90
51982;DHT22;37998;53.416;6.730;2023-03-02T07:55:47;2.20;99.90
51982;DHT22;37998;53.416;6.730;2023-03-02T07:58:12;2.30;99.90
51982;DHT22;37998;53.416;6.730;2023-03-02T08:00:38;2.30;99.90
51982;DHT22;37998;53.416;6.730;2023-03-02T08:03:04;2.40;99.90
51982;DHT22;37998;53.416;6.730;2023-03-02T08:05:29;2.40;99.90
51982;DHT22;37998;53.416;6.730;2023-03-02T08:07:55;2.40;99.90
51982;DHT22;37998;53.416;6.730;2023-03-02T08:10:20;2.40;99.90
51982;DHT22;37998;53.416;6.730;2023-03-02T08:12:47;2.40;99.90
51982;DHT22;37998;53.416;6.730;2023-03-02T08:15:13;2.50;99.90
51982;DHT22;37998;53.416;6.730;2023-03-02T08:17:38;2.50;99.90
51982;DHT22;37998;53.416;6.730;2023-03-02T08:20:05;2.60;99.90
51982;DHT22;37998;53.416;6.730;2023-03-02T08:22:31;2.50;99.90
51982;DHT22;37998;53.416;6.730;2023-03-02T08:24:56;2.40;99.90
51982;DHT22;37998;53.416;6.730;2023-03-02T08:27:22;2.50;99.90
51982;DHT22;37998;53.416;6.730;2023-03-02T08:29:48;2.50;99.90
51982;DHT22;37998;53.416;6.730;2023-03-02T08:32:13;2.50;99.90
51982;DHT22;37998;53.416;6.730;2023-03-02T08:34:39;2.60;99.90
51982;DHT22;37998;53.416;6.730;2023-03-02T08:37:05;2.60;99.90
51982;DHT22;37998;53.416;6.730;2023-03-02T08:39:30;2.70;99.90
51982;DHT22;37998;53.416;6.730;2023-03-02T08:41:56;2.70;99.90
51982;DHT22;37998;53.416;6.730;2023-03-02T08:44:22;2.80;99.90
51982;DHT22;37998;53.416;6.730;2023-03-02T08:46:51;2.80;99.90
51982;DHT22;37998;53.416;6.730;2023-03-02T08:49:17;2.80;99.90
51982;DHT22;37998;53.416;6.730;2023-03-02T08:51:44;2.80;99.90
51982;DHT22;37998;53.416;6.730;2023-03-02T08:54:11;2.80;99.90
51982;DHT22;37998;53.416;6.730;2023-03-02T08:56:38;2.80;99.90
51982;DHT22;37998;53.416;6.730;2023-03-02T08:59:08;2.90;99.90
51982;DHT22;37998;53.416;6.730;2023-03-02T09:01:36;2.90;99.90
51982;DHT22;37998;53.416;6.730;2023-03-02T09:04:04;2.90;99.90
51982;DHT22;37998;53.416;6.730;2023-03-02T09:06:31;2.90;99.90
51982;DHT22;37998;53.416;6.730;2023-03-02T09:08:57;2.80;99.90
51982;DHT22;37998;53.416;6.730;2023-03-02T09:11:24;2.70;99.90
51982;DHT22;37998;53.416;6.730;2023-03-02T09:13:49;2.60;99.90
51982;DHT22;37998;53.416;6.730;2023-03-02T09:16:16;2.70;99.90
51982;DHT22;37998;53.416;6.730;2023-03-02T09:18:42;2.70;99.90
51982;DHT22;37998;53.416;6.730;2023-03-02T09:21:09;2.70;99.90
51982;DHT22;37998;53.416;6.730;2023-03-02T09:23:35;2.70;99.90
51982;DHT22;37998;53.416;6.730;2023-03-02T09:26:01;2.80;99.90
51982;DHT22;37998;53.416;6.730;2023-03-02T09:28:27;2.80;99.90
51982;DHT22;37998;53.416;6.730;2023-03-02T09:30:56;2.90;99.90
51982;DHT22;37998;53.416;6.730;2023-03-02T09:33:22;2.90;99.90
51982;DHT22;37998;53.416;6.730;2023-03-02T09:35:48;2.90;99.90
51982;DHT22;37998;53.416;6.730;2023-03-02T09:38:15;3.00;99.90
51982;DHT22;37998;53.416;6.730;2023-03-02T09:52:37;3.00;99.90
51982;DHT22;37998;53.416;6.730;2023-03-02T09:55:14;2.90;99.90
51982;DHT22;37998;53.416;6.730;2023-03-02T09:57:42;2.80;99.90
51982;DHT22;37998;53.416;6.730;2023-03-02T10:00:28;2.80;99.90
51982;DHT22;37998;53.416;6.730;2023-03-02T10:02:58;3.00;99.90
51982;DHT22;37998;53.416;6.730;2023-03-02T10:08:01;3.10;99.90
51982;DHT22;37998;53.416;6.730;2023-03-02T10:16:31;3.10;99.90
51982;DHT22;37998;53.416;6.730;2023-03-02T10:19:09;3.20;99.90
51982;DHT22;37998;53.416;6.730;2023-03-02T10:21:39;3.20;99.90
51982;DHT22;37998;53.416;6.730;2023-03-02T10:24:34;3.30;99.90
51982;DHT22;37998;53.416;6.730;2023-03-02T10:30:02;3.50;99.90
51982;DHT22;37998;53.416;6.730;2023-03-02T10:32:35;3.50;99.90
51982;DHT22;37998;53.416;6.730;2023-03-02T10:35:21;3.40;99.90
51982;DHT22;37998;53.416;6.730;2023-03-02T10:37:50;3.40;99.90
51982;DHT22;37998;53.416;6.730;2023-03-02T10:40:40;3.40;99.90
51982;DHT22;37998;53.416;6.730;2023-03-02T10:43:53;3.30;99.90
51982;DHT22;37998;53.416;6.730;2023-03-02T10:46:07;3.40;99.90
51982;DHT22;37998;53.416;6.730;2023-03-02T10:48:48;3.50;99.90
51982;DHT22;37998;53.416;6.730;2023-03-02T10:51:27;3.60;99.90
51982;DHT22;37998;53.416;6.730;2023-03-02T10:54:11;3.60;99.90
51982;DHT22;37998;53.416;6.730;2023-03-02T10:56:37;3.50;99.90
51982;DHT22;37998;53.416;6.730;2023-03-02T10:59:40;3.50;99.90
51982;DHT22;37998;53.416;6.730;2023-03-02T11:02:23;3.40;99.90
51982;DHT22;37998;53.416;6.730;2023-03-02T11:07:22;3.50;99.90
51982;DHT22;37998;53.416;6.730;2023-03-02T11:10:02;3.50;99.90
51982;DHT22;37998;53.416;6.730;2023-03-02T11:12:29;3.60;99.90
51982;DHT22;37998;53.416;6.730;2023-03-02T11:17:36;3.70;99.90
51982;DHT22;37998;53.416;6.730;2023-03-02T11:20:04;3.70;99.90
51982;DHT22;37998;53.416;6.730;2023-03-02T11:22:40;3.80;99.90
51982;DHT22;37998;53.416;6.730;2023-03-02T11:25:07;3.80;99.90
51982;DHT22;37998;53.416;6.730;2023-03-02T11:27:39;3.80;99.90
51982;DHT22;37998;53.416;6.730;2023-03-02T11:30:13;3.80;99.90
51982;DHT22;37998;53.416;6.730;2023-03-02T11:37:51;3.60;99.90
51982;DHT22;37998;53.416;6.730;2023-03-02T11:40:28;3.70;99.90
51982;DHT22;37998;53.416;6.730;2023-03-02T11:42:56;4.20;99.90
51982;DHT22;37998;53.416;6.730;2023-03-02T11:45:26;3.80;99.90
51982;DHT22;37998;53.416;6.730;2023-03-02T11:50:21;3.80;99.90
51982;DHT22;37998;53.416;6.730;2023-03-02T11:52:52;3.90;99.90
51982;DHT22;37998;53.416;6.730;2023-03-02T11:55:32;3.90;99.90
51982;DHT22;37998;53.416;6.730;2023-03-02T11:58:02;4.00;99.90
51982;DHT22;37998;53.416;6.730;2023-03-02T12:00:41;3.90;99.90
51982;DHT22;37998;53.416;6.730;2023-03-02T12:05:40;4.00;99.90
51982;DHT22;37998;53.416;6.730;2023-03-02T12:10:57;4.10;99.90
51982;DHT22;37998;53.416;6.730;2023-03-02T12:13:27;4.10;99.90
51982;DHT22;37998;53.416;6.730;2023-03-02T12:15:53;4.10;99.90
51982;DHT22;37998;53.416;6.730;2023-03-02T12:21:03;4.20;99.90
51982;DHT22;37998;53.416;6.730;2023-03-02T12:23:35;4.20;99.90
51982;DHT22;37998;53.416;6.730;2023-03-02T12:26:27;4.20;99.90
51982;DHT22;37998;53.416;6.730;2023-03-02T12:29:00;4.20;99.90
51982;DHT22;37998;53.416;6.730;2023-03-02T12:31:37;4.20;99.90
51982;DHT22;37998;53.416;6.730;2023-03-02T12:34:18;4.20;99.90
51982;DHT22;37998;53.416;6.730;2023-03-02T12:36:47;4.30;99.90
51982;DHT22;37998;53.416;6.730;2023-03-02T12:39:23;4.40;99.90
51982;DHT22;37998;53.416;6.730;2023-03-02T12:44:50;4.60;99.90
51982;DHT22;37998;53.416;6.730;2023-03-02T12:47:20;4.60;99.90
51982;DHT22;37998;53.416;6.730;2023-03-02T12:50:36;4.60;99.90
51982;DHT22;37998;53.416;6.730;2023-03-02T12:52:44;4.70;99.90
51982;DHT22;37998;53.416;6.730;2023-03-02T12:55:17;4.80;99.90
51982;DHT22;37998;53.416;6.730;2023-03-02T12:57:49;4.90;99.90
51982;DHT22;37998;53.416;6.730;2023-03-02T13:00:17;4.90;99.90
51982;DHT22;37998;53.416;6.730;2023-03-02T13:02:48;5.00;99.90
51982;DHT22;37998;53.416;6.730;2023-03-02T13:05:20;5.00;99.90
51982;DHT22;37998;53.416;6.730;2023-03-02T13:07:57;4.90;99.90
51982;DHT22;37998;53.416;6.730;2023-03-02T13:13:01;4.80;99.90
51982;DHT22;37998;53.416;6.730;2023-03-02T13:15:27;4.80;99.90
51982;DHT22;37998;53.416;6.730;2023-03-02T13:17:55;4.80;99.90
51982;DHT22;37998;53.416;6.730;2023-03-02T13:20:24;4.80;99.90
51982;DHT22;37998;53.416;6.730;2023-03-02T13:22:51;4.80;99.90
51982;DHT22;37998;53.416;6.730;2023-03-02T13:25:26;4.90;99.90
51982;DHT22;37998;53.416;6.730;2023-03-02T13:27:55;4.90;99.90
51982;DHT22;37998;53.416;6.730;2023-03-02T13:30:27;4.90;99.90
51982;DHT22;37998;53.416;6.730;2023-03-02T13:33:13;4.80;99.90
51982;DHT22;37998;53.416;6.730;2023-03-02T13:35:45;4.80;99.90
51982;DHT22;37998;53.416;6.730;2023-03-02T13:38:20;4.80;99.90
51982;DHT22;37998;53.416;6.730;2023-03-02T13:40:51;4.80;99.90
51982;DHT22;37998;53.416;6.730;2023-03-02T13:43:32;4.80;99.90
51982;DHT22;37998;53.416;6.730;2023-03-02T13:46:33;4.90;99.90
51982;DHT22;37998;53.416;6.730;2023-03-02T13:49:05;4.80;99.90
51982;DHT22;37998;53.416;6.730;2023-03-02T13:51:37;4.90;99.90
51982;DHT22;37998;53.416;6.730;2023-03-02T13:54:21;4.90;99.90
51982;DHT22;37998;53.416;6.730;2023-03-02T13:56:48;4.80;99.90
51982;DHT22;37998;53.416;6.730;2023-03-02T13:59:17;4.80;99.90
51982;DHT22;37998;53.416;6.730;2023-03-02T14:01:45;4.70;99.90
51982;DHT22;37998;53.416;6.730;2023-03-02T14:04:12;4.70;99.90
51982;DHT22;37998;53.416;6.730;2023-03-02T14:06:38;4.70;99.90
51982;DHT22;37998;53.416;6.730;2023-03-02T14:09:03;4.80;99.90
51982;DHT22;37998;53.416;6.730;2023-03-02T14:11:34;4.90;99.90
51982;DHT22;37998;53.416;6.730;2023-03-02T14:14:01;4.90;99.90
51982;DHT22;37998;53.416;6.730;2023-03-02T14:16:28;4.90;99.90
51982;DHT22;37998;53.416;6.730;2023-03-02T14:18:54;4.90;99.90
51982;DHT22;37998;53.416;6.730;2023-03-02T14:21:25;4.80;99.90
51982;DHT22;37998;53.416;6.730;2023-03-02T14:23:51;4.80;99.90
51982;DHT22;37998;53.416;6.730;2023-03-02T14:26:35;4.80;99.90
51982;DHT22;37998;53.416;6.730;2023-03-02T14:31:42;4.70;99.90
51982;DHT22;37998;53.416;6.730;2023-03-02T14:34:12;4.60;99.90
51982;DHT22;37998;53.416;6.730;2023-03-02T14:36:38;4.60;99.90
51982;DHT22;37998;53.416;6.730;2023-03-02T14:39:19;4.60;99.90
51982;DHT22;37998;53.416;6.730;2023-03-02T14:41:45;4.70;99.90
51982;DHT22;37998;53.416;6.730;2023-03-02T14:44:11;4.70;99.90
51982;DHT22;37998;53.416;6.730;2023-03-02T14:46:36;4.70;99.90
51982;DHT22;37998;53.416;6.730;2023-03-02T14:49:02;4.80;99.90
51982;DHT22;37998;53.416;6.730;2023-03-02T14:51:31;4.80;99.90
51982;DHT22;37998;53.416;6.730;2023-03-02T14:53:59;4.80;99.90
51982;DHT22;37998;53.416;6.730;2023-03-02T14:56:26;4.80;99.90
51982;DHT22;37998;53.416;6.730;2023-03-02T14:58:52;4.80;99.90
51982;DHT22;37998;53.416;6.730;2023-03-02T15:01:19;4.80;99.90
51982;DHT22;37998;53.416;6.730;2023-03-02T15:03:44;4.80;99.90
51982;DHT22;37998;53.416;6.730;2023-03-02T15:06:31;4.80;99.90
51982;DHT22;37998;53.416;6.730;2023-03-02T15:08:59;4.80;99.90
51982;DHT22;37998;53.416;6.730;2023-03-02T15:11:26;4.80;99.90
51982;DHT22;37998;53.416;6.730;2023-03-02T15:13:52;4.70;99.90
51982;DHT22;37998;53.416;6.730;2023-03-02T15:16:18;4.70;99.90
51982;DHT22;37998;53.416;6.730;2023-03-02T15:18:46;4.70;99.90
51982;DHT22;37998;53.416;6.730;2023-03-02T15:21:21;4.70;99.90
51982;DHT22;37998;53.416;6.730;2023-03-02T15:23:48;4.70;99.90
51982;DHT22;37998;53.416;6.730;2023-03-02T15:26:14;4.70;99.90
51982;DHT22;37998;53.416;6.730;2023-03-02T15:28:40;4.70;99.90
51982;DHT22;37998;53.416;6.730;2023-03-02T15:31:11;4.80;99.90
51982;DHT22;37998;53.416;6.730;2023-03-02T15:33:38;4.80;99.90
51982;DHT22;37998;53.416;6.730;2023-03-02T15:36:05;4.70;99.90
51982;DHT22;37998;53.416;6.730;2023-03-02T15:38:32;4.70;99.90
51982;DHT22;37998;53.416;6.730;2023-03-02T15:41:05;4.70;99.90
51982;DHT22;37998;53.416;6.730;2023-03-02T15:43:31;4.70;99.90
51982;DHT22;37998;53.416;6.730;2023-03-02T15:45:57;4.70;99.90
51982;DHT22;37998;53.416;6.730;2023-03-02T15:48:23;4.70;99.90
51982;DHT22;37998;53.416;6.730;2023-03-02T15:51:03;4.70;99.90
51982;DHT22;37998;53.416;6.730;2023-03-02T15:53:29;4.70;99.90
51982;DHT22;37998;53.416;6.730;2023-03-02T15:55:55;4.70;99.90
51982;DHT22;37998;53.416;6.730;2023-03-02T15:58:21;4.60;99.90
51982;DHT22;37998;53.416;6.730;2023-03-02T16:00:51;4.60;99.90
51982;DHT22;37998;53.416;6.730;2023-03-02T16:03:18;4.50;99.90
51982;DHT22;37998;53.416;6.730;2023-03-02T16:05:44;4.50;99.90
51982;DHT22;37998;53.416;6.730;2023-03-02T16:08:10;4.50;99.90
51982;DHT22;37998;53.416;6.730;2023-03-02T16:10:35;4.50;99.90
51982;DHT22;37998;53.416;6.730;2023-03-02T16:13:02;4.50;99.90
51982;DHT22;37998;53.416;6.730;2023-03-02T16:15:28;4.50;99.90
51982;DHT22;37998;53.416;6.730;2023-03-02T16:17:54;4.50;99.90
51982;DHT22;37998;53.416;6.730;2023-03-02T16:20:20;4.40;99.90
51982;DHT22;37998;53.416;6.730;2023-03-02T16:22:45;4.40;99.90
51982;DHT22;37998;53.416;6.730;2023-03-02T16:25:11;4.40;99.90
51982;DHT22;37998;53.416;6.730;2023-03-02T16:27:36;4.40;99.90
51982;DHT22;37998;53.416;6.730;2023-03-02T16:30:03;4.40;99.90
51982;DHT22;37998;53.416;6.730;2023-03-02T16:32:28;4.30;99.90
51982;DHT22;37998;53.416;6.730;2023-03-02T16:34:54;4.30;99.90
51982;DHT22;37998;53.416;6.730;2023-03-02T16:37:20;4.30;99.90
51982;DHT22;37998;53.416;6.730;2023-03-02T16:39:45;4.30;99.90
51982;DHT22;37998;53.416;6.730;2023-03-02T16:42:11;4.30;99.90
51982;DHT22;37998;53.416;6.730;2023-03-02T16:44:37;4.30;99.90
51982;DHT22;37998;53.416;6.730;2023-03-02T16:47:04;4.20;99.90
51982;DHT22;37998;53.416;6.730;2023-03-02T16:49:29;4.20;99.90
51982;DHT22;37998;53.416;6.730;2023-03-02T16:51:56;4.10;99.90
51982;DHT22;37998;53.416;6.730;2023-03-02T16:54:23;4.10;99.90
51982;DHT22;37998;53.416;6.730;2023-03-02T16:56:48;4.00;99.90
51982;DHT22;37998;53.416;6.730;2023-03-02T16:59:14;4.00;99.90